createdAt,value
2022-10-18T00:02:24.065Z,15.13
2022-10-18T00:04:52.560Z,14.67
2022-10-18T00:07:21.041Z,11.20
2022-10-18T00:09:50.657Z,11.97
2022-10-18T00:12:19.122Z,14.47
2022-10-18T00:14:49.907Z,13.27
2022-10-18T00:17:18.438Z,11.50
2022-10-18T00:19:47.029Z,16.27
2022-10-18T00:22:15.500Z,22.03
2022-10-18T00:24:43.949Z,21.53
2022-10-18T00:27:14.342Z,28.70
2022-10-18T00:29:42.918Z,33.57
2022-10-18T00:32:12.083Z,29.50
2022-10-18T00:34:40.988Z,29.10
2022-10-18T00:37:09.408Z,26.50
2022-10-18T00:39:37.904Z,28.50
2022-10-18T00:42:06.462Z,32.43
2022-10-18T00:45:04.023Z,30.97
2022-10-18T00:47:33.022Z,24.63
2022-10-18T00:50:04.145Z,25.47
2022-10-18T00:52:35.856Z,21.63
2022-10-18T00:55:05.611Z,16.90
2022-10-18T00:57:34.395Z,21.73
2022-10-18T01:00:07.483Z,26.60
2022-10-18T01:02:35.851Z,39.60
2022-10-18T01:05:04.780Z,45.13
2022-10-18T01:07:47.046Z,23.10
2022-10-18T01:10:25.201Z,30.27
2022-10-18T01:13:04.457Z,16.77
2022-10-18T01:15:36.455Z,24.73
2022-10-18T01:18:10.416Z,22.10
2022-10-18T01:21:15.643Z,12.77
2022-10-18T01:24:25.357Z,21.07
2022-10-18T01:27:20.182Z,11.20
2022-10-18T01:29:59.356Z,12.03
2022-10-18T01:32:30.433Z,7.10
2022-10-18T01:35:03.468Z,6.50
2022-10-18T01:37:33.146Z,7.13
2022-10-18T01:40:06.501Z,8.10
2022-10-18T01:42:35.386Z,5.57
2022-10-18T01:45:05.210Z,6.07
2022-10-18T01:47:35.373Z,5.97
2022-10-18T01:50:06.920Z,6.23
2022-10-18T01:52:35.495Z,6.20
2022-10-18T01:55:04.930Z,6.33
2022-10-18T01:57:36.860Z,6.47
2022-10-18T02:00:08.493Z,6.73
2022-10-18T02:02:47.844Z,6.30
2022-10-18T02:05:24.138Z,7.43
2022-10-18T02:08:05.677Z,6.33
2022-10-18T02:10:46.010Z,6.60
2022-10-18T02:13:16.278Z,6.20
2022-10-18T02:15:49.825Z,6.63
2022-10-18T02:18:22.686Z,13.63
2022-10-18T02:20:51.819Z,14.53
2022-10-18T02:23:23.059Z,15.67
2022-10-18T02:25:51.727Z,12.30
2022-10-18T02:28:20.272Z,24.03
2022-10-18T02:30:52.657Z,26.37
2022-10-18T02:33:27.578Z,58.17
2022-10-18T02:36:00.564Z,32.93
2022-10-18T02:38:29.869Z,24.20
2022-10-18T02:40:58.352Z,22.20
2022-10-18T02:43:26.847Z,21.50
2022-10-18T02:45:55.388Z,27.57
2022-10-18T02:48:25.069Z,18.70
2022-10-18T02:50:53.456Z,35.43
2022-10-18T02:53:21.935Z,35.07
2022-10-18T02:55:50.383Z,24.17
2022-10-18T02:58:18.807Z,21.97
2022-10-18T03:00:47.090Z,26.37
2022-10-18T03:03:15.533Z,23.90
2022-10-18T03:05:45.369Z,28.63
2022-10-18T03:08:13.868Z,24.53
2022-10-18T03:10:44.425Z,23.63
2022-10-18T03:13:12.940Z,23.27
2022-10-18T03:15:42.176Z,33.20
2022-10-18T03:18:11.082Z,37.83
2022-10-18T03:20:39.486Z,31.10
2022-10-18T03:23:09.354Z,25.57
2022-10-18T03:25:39.534Z,18.40
2022-10-18T03:28:09.994Z,15.93
2022-10-18T03:30:38.796Z,13.50
2022-10-18T03:33:07.323Z,19.27
2022-10-18T03:35:35.667Z,15.87
2022-10-18T03:38:04.000Z,13.13
2022-10-18T03:40:33.773Z,17.93
2022-10-18T03:43:02.209Z,21.70
2022-10-18T03:45:31.480Z,15.73
2022-10-18T03:48:00.032Z,22.73
2022-10-18T03:50:28.370Z,19.90
2022-10-18T03:52:56.810Z,24.07
2022-10-18T03:55:25.385Z,17.50
2022-10-18T03:57:55.069Z,16.30
2022-10-18T04:00:23.728Z,16.83
2022-10-18T04:02:55.076Z,15.20
2022-10-18T04:05:26.965Z,23.67
2022-10-18T04:07:55.478Z,28.13
2022-10-18T04:10:24.405Z,19.57
2022-10-18T04:12:52.781Z,14.57
2022-10-18T04:15:22.564Z,12.47
2022-10-18T04:17:51.313Z,28.67
2022-10-18T04:20:20.405Z,17.70
2022-10-18T04:22:50.199Z,24.50
2022-10-18T04:25:19.419Z,37.53
2022-10-18T04:27:48.356Z,9.47
2022-10-18T04:30:16.992Z,17.97
2022-10-18T04:32:46.666Z,24.00
2022-10-18T04:35:15.595Z,11.17
2022-10-18T04:37:44.355Z,24.73
2022-10-18T04:40:13.705Z,12.47
2022-10-18T04:42:42.058Z,14.77
2022-10-18T04:45:11.639Z,26.30
2022-10-18T04:47:41.814Z,20.77
2022-10-18T04:50:11.849Z,12.87
2022-10-18T04:52:40.232Z,16.77
2022-10-18T04:55:09.417Z,16.27
2022-10-18T04:57:37.759Z,17.90
2022-10-18T05:00:07.387Z,23.70
2022-10-18T05:02:35.748Z,19.33
2022-10-18T05:05:04.412Z,16.77
2022-10-18T05:07:34.085Z,13.83
2022-10-18T05:10:02.485Z,27.97
2022-10-18T05:12:31.599Z,23.10
2022-10-18T05:15:00.152Z,19.83
2022-10-18T05:17:28.507Z,17.40
2022-10-18T05:19:56.898Z,38.97
2022-10-18T05:22:25.322Z,34.80
2022-10-18T05:24:55.062Z,33.03
2022-10-18T05:27:23.585Z,39.63
2022-10-18T05:29:51.914Z,47.13
2022-10-18T05:32:20.356Z,46.27
2022-10-18T05:34:48.871Z,25.83
2022-10-18T05:37:17.198Z,60.20
2022-10-18T05:39:45.757Z,55.90
2022-10-18T05:42:15.440Z,37.87
2022-10-18T05:44:43.959Z,32.50
2022-10-18T05:47:12.312Z,67.10
2022-10-18T05:49:40.706Z,34.10
2022-10-18T05:52:09.425Z,45.63
2022-10-18T05:54:38.913Z,30.10
2022-10-18T05:57:07.641Z,24.33
2022-10-18T05:59:37.470Z,30.43
2022-10-18T06:02:06.028Z,51.03
2022-10-18T06:04:34.742Z,41.07
2022-10-18T06:07:03.196Z,33.43
2022-10-18T06:09:31.612Z,42.93
2022-10-18T06:12:00.020Z,61.83
2022-10-18T06:14:28.398Z,47.50
2022-10-18T06:17:00.918Z,48.17
2022-10-18T06:19:29.520Z,32.70
2022-10-18T06:21:58.081Z,50.67
2022-10-18T06:24:26.671Z,44.77
2022-10-18T06:26:55.236Z,37.50
2022-10-18T06:29:24.435Z,40.33
2022-10-18T06:31:53.537Z,26.67
2022-10-18T06:34:23.577Z,27.30
2022-10-18T06:36:55.015Z,27.03
2022-10-18T06:39:26.845Z,24.90
2022-10-18T06:41:55.469Z,34.00
2022-10-18T06:44:23.942Z,28.17
2022-10-18T06:46:53.479Z,23.53
2022-10-18T06:49:23.194Z,27.80
2022-10-18T06:51:51.513Z,27.53
2022-10-18T06:54:20.021Z,25.10
2022-10-18T06:56:49.942Z,26.83
2022-10-18T06:59:18.619Z,27.67
2022-10-18T07:01:47.083Z,21.07
2022-10-18T07:04:17.548Z,17.63
2022-10-18T07:06:47.640Z,15.70
2022-10-18T07:09:16.023Z,14.60
2022-10-18T07:11:44.799Z,16.40
2022-10-18T07:14:16.479Z,14.97
2022-10-18T07:16:45.065Z,12.37
2022-10-18T07:19:15.058Z,10.73
2022-10-18T07:21:43.559Z,11.33
2022-10-18T07:24:13.726Z,10.13
2022-10-18T07:26:42.427Z,12.37
2022-10-18T07:29:13.524Z,15.17
2022-10-18T07:31:42.200Z,12.83
2022-10-18T07:34:13.335Z,15.30
2022-10-18T07:36:42.227Z,15.17
2022-10-18T07:39:10.954Z,12.17
2022-10-18T07:41:40.689Z,10.60
2022-10-18T07:44:09.182Z,10.50
2022-10-18T07:46:37.741Z,6.80
2022-10-18T07:49:06.138Z,12.40
2022-10-18T07:51:36.210Z,6.13
2022-10-18T07:54:04.775Z,7.00
2022-10-18T07:56:33.301Z,6.67
2022-10-18T07:59:03.303Z,5.93
2022-10-18T08:01:32.342Z,6.40
2022-10-18T08:04:06.963Z,5.87
2022-10-18T08:06:36.386Z,7.90
2022-10-18T08:09:05.490Z,5.97
2022-10-18T08:11:34.137Z,6.23
2022-10-18T08:14:03.969Z,6.23
2022-10-18T08:19:01.106Z,6.50
2022-10-18T08:21:29.504Z,7.50
2022-10-18T08:23:57.893Z,6.73
2022-10-18T08:26:26.250Z,6.60
2022-10-18T08:29:10.382Z,10.17
2022-10-18T08:31:44.194Z,17.30
2022-10-18T08:34:17.190Z,12.53
2022-10-18T08:36:47.767Z,7.03
2022-10-18T08:39:16.501Z,11.00
2022-10-18T08:41:56.245Z,6.37
2022-10-18T08:44:26.310Z,7.23
2022-10-18T08:47:00.252Z,7.10
2022-10-18T08:49:31.908Z,8.80
2022-10-18T08:52:00.988Z,13.03
2022-10-18T08:54:34.561Z,6.03
2022-10-18T08:57:07.335Z,9.03
2022-10-18T08:59:39.811Z,14.90
2022-10-18T09:02:18.512Z,8.27
2022-10-18T09:04:53.372Z,7.57
2022-10-18T09:08:00.486Z,7.87
2022-10-18T09:10:35.575Z,5.67
2022-10-18T09:13:24.369Z,6.50
2022-10-18T09:15:56.241Z,7.90
2022-10-18T09:18:38.081Z,9.23
2022-10-18T09:21:16.269Z,7.10
2022-10-18T09:23:48.292Z,10.67
2022-10-18T09:26:18.909Z,10.10
2022-10-18T09:29:00.686Z,7.87
2022-10-18T09:31:33.918Z,6.03
2022-10-18T09:34:06.394Z,10.53
2022-10-18T09:36:37.193Z,6.67
2022-10-18T09:39:11.563Z,5.00
2022-10-18T09:41:43.650Z,10.00
2022-10-18T09:44:17.043Z,7.63
2022-10-18T09:46:49.024Z,8.77
2022-10-18T09:49:21.739Z,10.00
2022-10-18T09:51:51.140Z,8.63
2022-10-18T09:54:27.105Z,7.60
2022-10-18T09:56:59.329Z,9.50
2022-10-18T09:59:35.473Z,6.10
2022-10-18T10:02:04.175Z,9.73
2022-10-18T10:04:33.898Z,8.77
2022-10-18T10:07:03.705Z,10.43
2022-10-18T10:09:38.388Z,6.40
2022-10-18T10:12:06.932Z,6.17
2022-10-18T10:14:45.023Z,7.10
2022-10-18T10:17:25.060Z,7.20
2022-10-18T10:20:05.061Z,9.17
2022-10-18T10:22:36.377Z,8.93
2022-10-18T10:25:05.867Z,8.67
2022-10-18T10:27:41.004Z,7.97
2022-10-18T10:30:24.866Z,10.13
2022-10-18T10:32:54.618Z,6.63
2022-10-18T10:35:48.996Z,6.23
2022-10-18T10:38:25.740Z,10.33
2022-10-18T10:40:54.480Z,7.60
2022-10-18T10:43:42.026Z,7.70
2022-10-18T10:46:13.517Z,8.50
2022-10-18T10:48:50.717Z,6.27
2022-10-18T10:51:30.265Z,10.37
2022-10-18T10:54:02.204Z,7.20
2022-10-18T10:56:32.047Z,10.73
2022-10-18T10:59:09.733Z,8.23
2022-10-18T11:01:38.501Z,6.90
2022-10-18T11:04:25.685Z,6.40
2022-10-18T11:07:04.283Z,6.00
2022-10-18T11:09:45.415Z,9.27
2022-10-18T11:12:21.533Z,7.10
2022-10-18T11:14:54.127Z,6.97
2022-10-18T11:17:28.213Z,9.50
2022-10-18T11:20:15.585Z,7.73
2022-10-18T11:22:58.568Z,8.30
2022-10-18T11:25:41.401Z,9.43
2022-10-18T11:28:15.053Z,9.37
2022-10-18T11:30:53.430Z,7.23
2022-10-18T11:33:42.926Z,7.80
2022-10-18T11:36:19.512Z,8.03
2022-10-18T11:38:55.144Z,5.50
2022-10-18T11:41:36.096Z,15.03
2022-10-18T11:44:05.825Z,10.10
2022-10-18T11:46:42.235Z,5.27
2022-10-18T11:49:18.957Z,6.23
2022-10-18T11:52:08.266Z,7.97
2022-10-18T11:55:31.891Z,8.40
2022-10-18T11:58:11.239Z,7.17
2022-10-18T12:00:49.013Z,6.27
2022-10-18T12:03:33.128Z,7.57
2022-10-18T12:06:05.855Z,10.83
2022-10-18T12:08:37.904Z,6.13
2022-10-18T12:11:11.469Z,7.90
2022-10-18T12:13:45.966Z,11.80
2022-10-18T12:16:14.557Z,8.90
2022-10-18T12:18:49.571Z,7.03
2022-10-18T12:21:25.357Z,8.23
2022-10-18T12:23:57.138Z,5.73
2022-10-18T12:26:26.627Z,10.50
2022-10-18T12:29:18.141Z,9.03
2022-10-18T12:31:49.548Z,10.30
2022-10-18T12:34:31.632Z,8.23
2022-10-18T12:37:18.689Z,7.47
2022-10-18T12:40:09.093Z,8.53
2022-10-18T12:42:42.617Z,11.77
2022-10-18T12:45:26.711Z,8.73
2022-10-18T12:47:56.213Z,6.93
2022-10-18T12:50:30.669Z,5.80
2022-10-18T12:53:08.379Z,10.13
2022-10-18T12:55:38.137Z,9.37
2022-10-18T12:58:28.798Z,7.27
2022-10-18T13:01:06.969Z,8.20
2022-10-18T13:03:52.210Z,6.70
2022-10-18T13:06:21.095Z,10.83
2022-10-18T13:08:51.144Z,7.57
2022-10-18T13:11:35.981Z,6.47
2022-10-18T13:14:19.346Z,13.17
2022-10-18T13:16:54.093Z,4.63
2022-10-18T13:19:26.138Z,9.60
2022-10-18T13:22:07.723Z,6.30
2022-10-18T13:24:41.072Z,5.90
2022-10-18T13:27:36.806Z,7.63
2022-10-18T13:30:31.843Z,5.80
2022-10-18T13:33:10.880Z,5.20
2022-10-18T13:35:45.146Z,8.27
2022-10-18T13:38:39.536Z,5.97
2022-10-18T13:41:10.429Z,6.33
2022-10-18T13:44:20.113Z,6.30
2022-10-18T13:47:25.410Z,10.40
2022-10-18T13:50:26.254Z,7.63
2022-10-18T13:53:31.441Z,6.83
2022-10-18T13:56:13.397Z,13.43
2022-10-18T13:58:49.264Z,9.47
2022-10-18T14:01:30.401Z,9.77
2022-10-18T14:04:30.808Z,7.33
2022-10-18T14:07:02.864Z,6.50
2022-10-18T14:09:55.028Z,6.43
2022-10-18T14:12:28.524Z,7.40
2022-10-18T14:15:00.919Z,7.30
2022-10-18T14:17:35.333Z,8.73
2022-10-18T14:20:15.744Z,10.80
2022-10-18T14:22:49.066Z,9.03
2022-10-18T14:25:22.288Z,5.53
2022-10-18T14:28:06.863Z,8.50
2022-10-18T14:30:36.988Z,8.70
2022-10-18T14:33:05.392Z,8.33
2022-10-18T14:35:35.486Z,7.20
2022-10-18T14:38:07.372Z,5.60
2022-10-18T14:40:38.959Z,7.20
2022-10-18T14:43:11.421Z,4.57
2022-10-18T14:45:39.958Z,7.57
2022-10-18T14:48:15.045Z,7.23
2022-10-18T14:50:44.818Z,6.13
2022-10-18T14:53:18.429Z,5.90
2022-10-18T14:55:56.139Z,6.17
2022-10-18T14:58:27.085Z,11.77
2022-10-18T15:00:55.859Z,4.50
2022-10-18T15:03:24.977Z,5.87
2022-10-18T15:05:55.100Z,4.13
2022-10-18T15:08:25.559Z,6.23
2022-10-18T15:10:54.844Z,9.60
2022-10-18T15:13:25.089Z,5.17
2022-10-18T15:15:54.149Z,5.70
2022-10-18T15:18:24.584Z,6.53
2022-10-18T15:21:10.146Z,6.20
2022-10-18T15:23:39.885Z,9.10
2022-10-18T15:26:11.046Z,7.87
2022-10-18T15:28:49.522Z,4.23
2022-10-18T15:31:23.879Z,4.73
2022-10-18T15:33:52.794Z,3.83
2022-10-18T15:36:28.144Z,9.07
2022-10-18T15:39:07.323Z,5.00
2022-10-18T15:41:45.865Z,5.80
2022-10-18T15:44:21.819Z,5.03
2022-10-18T15:46:52.895Z,2.60
2022-10-18T15:49:51.943Z,3.50
2022-10-18T15:52:37.749Z,2.60
2022-10-18T15:55:48.679Z,4.43
2022-10-18T15:58:20.364Z,3.63
2022-10-18T16:00:50.045Z,3.53
2022-10-18T16:03:19.362Z,3.93
2022-10-18T16:05:47.733Z,4.07
2022-10-18T16:08:24.287Z,4.60
2022-10-18T16:10:54.110Z,5.40
2022-10-18T16:13:22.574Z,4.87
2022-10-18T16:15:51.183Z,5.40
2022-10-18T16:18:21.016Z,6.23
2022-10-18T16:20:49.672Z,7.70
2022-10-18T16:23:20.438Z,6.77
2022-10-18T16:25:49.073Z,5.13
2022-10-18T16:28:21.381Z,6.37
2022-10-18T16:30:55.178Z,5.33
2022-10-18T16:33:24.310Z,5.20
2022-10-18T16:35:53.265Z,5.90
2022-10-18T16:38:28.686Z,4.97
2022-10-18T16:40:59.750Z,4.93
2022-10-18T16:43:29.561Z,4.50
2022-10-18T16:45:57.919Z,4.33
2022-10-18T16:48:27.056Z,3.40
2022-10-18T16:50:56.740Z,5.30
2022-10-18T16:53:26.198Z,6.23
2022-10-18T16:55:56.357Z,5.80
2022-10-18T16:58:26.140Z,6.37
2022-10-18T17:00:55.904Z,3.43
2022-10-18T17:03:24.905Z,4.03
2022-10-18T17:05:53.687Z,4.00
2022-10-18T17:08:24.553Z,6.73
2022-10-18T17:10:55.639Z,4.03
2022-10-18T17:13:24.756Z,5.90
2022-10-18T17:15:53.633Z,8.37
2022-10-18T17:18:26.410Z,5.53
2022-10-18T17:20:55.108Z,7.20
2022-10-18T17:23:23.537Z,7.47
2022-10-18T17:26:06.908Z,6.87
2022-10-18T17:28:38.427Z,8.97
2022-10-18T17:31:08.306Z,6.90
2022-10-18T17:33:38.185Z,5.70
2022-10-18T17:36:06.880Z,5.03
2022-10-18T17:38:35.433Z,5.77
2022-10-18T17:41:07.354Z,4.37
2022-10-18T17:43:37.738Z,5.73
2022-10-18T17:46:06.669Z,5.73
2022-10-18T17:48:35.264Z,9.67
2022-10-18T17:51:09.225Z,7.00
2022-10-18T17:53:37.780Z,9.07
2022-10-18T17:56:07.766Z,4.33
2022-10-18T17:58:36.650Z,4.60
2022-10-18T18:01:15.759Z,6.80
2022-10-18T18:03:44.639Z,5.30
2022-10-18T18:06:17.004Z,6.20
2022-10-18T18:08:46.572Z,7.63
2022-10-18T18:11:16.353Z,4.40
2022-10-18T18:13:44.732Z,8.77
2022-10-18T18:16:15.581Z,6.33
2022-10-18T18:18:44.386Z,4.87
2022-10-18T18:21:13.056Z,7.97
2022-10-18T18:23:42.841Z,4.93
2022-10-18T18:26:11.278Z,7.70
2022-10-18T18:28:39.873Z,12.40
2022-10-18T18:31:09.042Z,8.27
2022-10-18T18:33:37.775Z,7.90
2022-10-18T18:36:06.991Z,7.83
2022-10-18T18:38:36.777Z,7.50
2022-10-18T18:41:11.383Z,7.40
2022-10-18T18:43:41.822Z,11.43
2022-10-18T18:46:10.983Z,15.50
2022-10-18T18:48:40.725Z,6.93
2022-10-18T18:51:12.973Z,7.57
2022-10-18T18:53:42.047Z,6.47
2022-10-18T18:56:16.918Z,7.90
2022-10-18T18:58:46.016Z,7.83
2022-10-18T19:01:17.139Z,10.43
2022-10-18T19:03:46.727Z,8.27
2022-10-18T19:06:17.860Z,7.00
2022-10-18T19:08:46.985Z,7.50
2022-10-18T19:11:19.096Z,6.80
2022-10-18T19:13:47.844Z,6.70
2022-10-18T19:16:22.748Z,10.93
2022-10-18T19:18:56.777Z,7.10
2022-10-18T19:21:26.880Z,10.63
2022-10-18T19:23:56.044Z,7.07
2022-10-18T19:26:32.323Z,7.00
2022-10-18T19:29:07.549Z,7.63
2022-10-18T19:31:36.679Z,10.03
2022-10-18T19:34:06.195Z,6.77
2022-10-18T19:36:34.739Z,12.73
2022-10-18T19:39:03.270Z,11.93
2022-10-18T19:41:33.808Z,7.00
2022-10-18T19:44:02.501Z,7.70
2022-10-18T19:46:30.957Z,8.13
2022-10-18T19:48:59.477Z,8.73
2022-10-18T19:51:28.581Z,7.37
2022-10-18T19:53:57.734Z,7.27
2022-10-18T19:56:27.259Z,8.67
2022-10-18T19:58:58.037Z,9.20
2022-10-18T20:01:27.363Z,5.83
2022-10-18T20:03:55.819Z,7.60
2022-10-18T20:06:24.592Z,8.03
2022-10-18T20:08:53.257Z,9.13
2022-10-18T20:11:23.185Z,10.90
2022-10-18T20:13:52.315Z,10.43
2022-10-18T20:16:27.868Z,7.53
2022-10-18T20:18:58.490Z,9.37
2022-10-18T20:21:28.326Z,8.17
2022-10-18T20:23:57.979Z,9.93
2022-10-18T20:26:26.800Z,8.03
2022-10-18T20:28:57.927Z,16.17
2022-10-18T20:31:29.481Z,7.90
2022-10-18T20:33:59.713Z,6.80
2022-10-18T20:36:28.894Z,8.27
2022-10-18T20:38:58.001Z,9.13
2022-10-18T20:41:28.512Z,7.93
2022-10-18T20:43:58.743Z,7.50
2022-10-18T20:46:33.955Z,8.37
2022-10-18T20:49:02.987Z,10.00
2022-10-18T20:51:33.638Z,12.33
2022-10-18T20:56:35.377Z,12.03
2022-10-18T20:59:06.140Z,12.43
2022-10-18T21:01:37.505Z,8.07
2022-10-18T21:04:08.439Z,12.67
2022-10-18T21:06:40.184Z,8.17
2022-10-18T21:09:10.038Z,10.17
2022-10-18T21:11:39.937Z,7.13
2022-10-18T21:14:10.693Z,10.87
2022-10-18T21:16:40.444Z,8.90
2022-10-18T21:19:12.554Z,9.43
2022-10-18T21:21:42.245Z,10.77
2022-10-18T21:24:10.671Z,9.33
2022-10-18T21:26:39.239Z,8.23
2022-10-18T21:29:08.092Z,9.40
2022-10-18T21:31:39.006Z,10.33
2022-10-18T21:34:12.742Z,7.97
2022-10-18T21:36:41.862Z,9.60
2022-10-18T21:39:14.743Z,7.43
2022-10-18T21:41:43.568Z,8.67
2022-10-18T21:44:12.479Z,9.40
2022-10-18T21:46:42.984Z,9.37
2022-10-18T21:49:13.586Z,9.33
2022-10-18T21:51:42.436Z,8.37
2022-10-18T21:54:13.149Z,7.87
2022-10-18T21:56:41.589Z,8.73
2022-10-18T21:59:11.934Z,12.20
2022-10-18T22:01:40.857Z,7.77
2022-10-18T22:04:20.461Z,9.33
2022-10-18T22:06:49.212Z,8.37
2022-10-18T22:09:17.677Z,9.00
2022-10-18T22:11:48.887Z,8.50
2022-10-18T22:14:17.345Z,13.60
2022-10-18T22:16:45.693Z,9.73
2022-10-18T22:19:14.331Z,11.63
2022-10-18T22:21:44.176Z,13.83
2022-10-18T22:24:12.790Z,8.27
2022-10-18T22:26:42.853Z,9.93
2022-10-18T22:29:13.261Z,9.40
2022-10-18T22:31:43.623Z,12.67
2022-10-18T22:34:13.558Z,8.77
2022-10-18T22:36:42.284Z,11.73
2022-10-18T22:39:14.376Z,11.50
2022-10-18T22:41:43.529Z,9.40
2022-10-18T22:44:13.142Z,10.37
2022-10-18T22:46:42.260Z,10.10
2022-10-18T22:49:11.435Z,8.10
2022-10-18T22:51:39.877Z,10.67
2022-10-18T22:54:08.451Z,11.13
2022-10-18T22:56:38.065Z,9.83
2022-10-18T22:59:06.566Z,11.00
2022-10-18T23:01:35.057Z,15.97
2022-10-18T23:04:04.805Z,9.10
2022-10-18T23:06:35.168Z,9.33
2022-10-18T23:09:06.521Z,11.53
2022-10-18T23:11:36.040Z,11.10
2022-10-18T23:14:06.648Z,10.47
2022-10-18T23:16:35.172Z,8.73
2022-10-18T23:19:03.907Z,8.37
2022-10-18T23:21:32.344Z,11.93
2022-10-18T23:24:00.761Z,8.57
2022-10-18T23:26:29.109Z,8.03
2022-10-18T23:28:57.895Z,10.47
2022-10-18T23:31:29.004Z,10.07
2022-10-18T23:33:58.720Z,13.67
2022-10-18T23:36:27.543Z,8.63
2022-10-18T23:38:56.585Z,9.20
2022-10-18T23:41:25.104Z,7.03
2022-10-18T23:43:53.647Z,7.63
2022-10-18T23:46:22.284Z,8.40
2022-10-18T23:48:52.181Z,7.33
2022-10-18T23:51:20.636Z,7.40
2022-10-18T23:53:49.081Z,7.97
2022-10-18T23:56:17.575Z,9.17
2022-10-18T23:58:46.860Z,7.93
